Time;durP1;ratioP1;P1;durP2;ratioP2;P2;SDS_P1;SDS_P2;PMS_P1;PMS_P2;Temp;Humidity;BMP_temperature;BMP_pressure;BME280_temperature;BME280_humidity;BME280_pressure;Samples;Min_cycle;Max_cycle;Signal;HPM_P1;HPM_P2
2021/01/01 00:02:01;;;;;;;155.10;113.40;;;2.00;99.90;;;;;;5035244;28;20169;-92
2021/01/01 00:04:27;;;;;;;153.70;113.68;;;1.80;99.90;;;;;;5035032;28;20548;-94
2021/01/01 00:06:53;;;;;;;148.65;111.20;;;1.80;99.90;;;;;;5035121;28;20193;-92
2021/01/01 00:09:18;;;;;;;142.32;105.72;;;1.80;99.90;;;;;;5034251;28;20220;-92
2021/01/01 00:11:50;;;;;;;146.80;106.72;;;2.00;99.90;;;;;;5034015;28;20173;-86
2021/01/01 00:14:17;;;;;;;140.57;103.95;;;3.50;99.90;;;;;;5031034;28;20559;-87
2021/01/01 00:16:44;;;;;;;122.60;91.78;;;2.40;99.90;;;;;;5023982;28;20173;-85
2021/01/01 00:19:12;;;;;;;128.93;91.05;;;1.90;99.90;;;;;;5023231;28;20276;-86
2021/01/01 00:21:37;;;;;;;116.00;86.80;;;1.70;99.90;;;;;;5028367;28;20177;-82
2021/01/01 00:24:04;;;;;;;130.45;91.88;;;1.70;99.90;;;;;;5015982;28;20539;-84
2021/01/01 00:26:29;;;;;;;125.80;94.00;;;1.50;99.90;;;;;;5022021;28;20176;-86
2021/01/01 00:28:55;;;;;;;132.65;99.28;;;3.20;99.90;;;;;;5023092;28;20200;-84
2021/01/01 00:31:23;;;;;;;125.60;98.03;;;1.60;99.90;;;;;;5032427;28;20254;-84
2021/01/01 00:33:50;;;;;;;137.02;103.35;;;1.60;99.90;;;;;;5031767;28;20200;-84
2021/01/01 00:36:17;;;;;;;142.10;104.25;;;1.70;99.90;;;;;;5031512;28;20216;-85
2021/01/01 00:38:50;;;;;;;135.73;100.53;;;1.70;99.90;;;;;;5031403;28;20192;-84
2021/01/01 00:41:26;;;;;;;137.43;99.03;;;1.80;99.90;;;;;;5031561;28;20184;-84
2021/01/01 00:43:56;;;;;;;130.07;98.80;;;1.60;99.90;;;;;;5031720;28;20318;-83
2021/01/01 00:46:22;;;;;;;127.13;92.55;;;1.50;99.90;;;;;;5030416;28;20180;-84
2021/01/01 00:48:48;;;;;;;117.43;83.70;;;1.50;99.90;;;;;;5031469;28;20200;-84
2021/01/01 00:51:14;;;;;;;111.68;80.28;;;1.60;99.90;;;;;;5031445;28;20180;-83
2021/01/01 00:53:40;;;;;;;115.20;86.10;;;1.50;99.90;;;;;;5030358;28;20223;-84
2021/01/01 00:56:06;;;;;;;117.50;86.55;;;3.00;99.90;;;;;;5032607;28;20204;-84
2021/01/01 00:58:32;;;;;;;118.25;90.60;;;1.40;99.90;;;;;;5031398;28;20193;-84
2021/01/01 01:00:57;;;;;;;114.82;85.60;;;1.70;99.90;;;;;;5033032;28;20172;-83
2021/01/01 01:03:23;;;;;;;123.95;87.97;;;3.00;99.90;;;;;;5030734;28;20681;-83
2021/01/01 01:05:49;;;;;;;127.43;92.85;;;2.00;99.90;;;;;;5031074;28;20653;-84
2021/01/01 01:08:15;;;;;;;109.22;82.10;;;1.50;99.90;;;;;;5029907;28;20267;-84
2021/01/01 01:10:42;;;;;;;110.60;82.30;;;3.30;99.90;;;;;;5032540;28;20218;-83
2021/01/01 01:13:08;;;;;;;95.55;69.35;;;3.10;99.90;;;;;;5030848;28;20605;-84
2021/01/01 01:15:34;;;;;;;87.93;64.32;;;3.10;99.90;;;;;;5031175;28;20220;-83
2021/01/01 01:17:59;;;;;;;70.97;50.45;;;1.80;99.90;;;;;;5030901;28;20754;-83
2021/01/01 01:20:25;;;;;;;67.93;46.95;;;;;;;;;;5032001;28;20180;-84
2021/01/01 01:22:51;;;;;;;62.38;44.58;;;1.80;99.90;;;;;;5028929;28;20203;-84
2021/01/01 01:25:17;;;;;;;56.88;42.90;;;1.60;99.90;;;;;;5032415;28;20180;-84
2021/01/01 01:27:43;;;;;;;58.83;43.17;;;1.50;99.90;;;;;;5031653;28;20200;-83
2021/01/01 01:30:09;;;;;;;54.95;42.90;;;2.40;99.90;;;;;;5032135;28;20177;-83
2021/01/01 01:32:35;;;;;;;59.00;45.03;;;1.50;99.90;;;;;;5032044;28;20207;-84
2021/01/01 01:35:01;;;;;;;57.35;42.88;;;2.00;99.90;;;;;;5031217;28;20695;-83
2021/01/01 01:37:26;;;;;;;51.95;40.35;;;1.50;99.90;;;;;;5030513;28;20200;-84
2021/01/01 01:39:52;;;;;;;54.72;40.92;;;1.60;99.90;;;;;;5030638;28;20204;-84
2021/01/01 01:42:18;;;;;;;51.83;39.30;;;1.70;99.90;;;;;;5032124;28;20700;-83
2021/01/01 01:44:44;;;;;;;56.80;37.83;;;;;;;;;;5030517;28;20639;-83
2021/01/01 01:47:15;;;;;;;48.30;39.20;;;1.40;99.90;;;;;;5032118;28;20196;-83
2021/01/01 01:49:42;;;;;;;51.28;40.33;;;1.40;99.90;;;;;;5030821;28;20180;-83
2021/01/01 01:52:08;;;;;;;57.72;42.17;;;1.30;99.90;;;;;;5014632;28;20200;-83
2021/01/01 01:54:33;;;;;;;53.97;42.50;;;2.50;99.90;;;;;;5028249;28;20572;-83
2021/01/01 01:56:59;;;;;;;55.42;41.47;;;1.30;99.90;;;;;;5030688;28;20179;-83
2021/01/01 01:59:25;;;;;;;53.30;41.03;;;1.30;99.90;;;;;;5030537;28;20173;-83
2021/01/01 02:01:51;;;;;;;54.75;40.70;;;1.40;99.90;;;;;;5031391;28;20698;-83
2021/01/01 02:04:16;;;;;;;51.22;40.05;;;1.30;99.90;;;;;;5029237;28;20183;-84
2021/01/01 02:06:43;;;;;;;59.53;42.17;;;1.40;99.90;;;;;;5031982;28;20648;-83
2021/01/01 02:09:09;;;;;;;54.60;40.90;;;;;;;;;;5030140;28;20322;-83
2021/01/01 02:11:35;;;;;;;58.85;42.03;;;1.20;99.90;;;;;;5031495;28;20176;-84
2021/01/01 02:14:01;;;;;;;48.15;38.95;;;2.40;99.90;;;;;;5031570;28;20197;-82
2021/01/01 02:16:28;;;;;;;51.30;40.70;;;1.30;99.90;;;;;;5031692;28;20588;-84
2021/01/01 02:18:54;;;;;;;53.65;40.80;;;1.20;99.90;;;;;;5030242;28;20197;-84
2021/01/01 02:21:21;;;;;;;58.28;44.80;;;;;;;;;;5034173;28;20696;-84
2021/01/01 02:23:47;;;;;;;60.47;43.83;;;1.20;99.90;;;;;;5035597;28;20192;-83
2021/01/01 02:26:14;;;;;;;53.92;40.53;;;1.20;99.90;;;;;;5033441;28;20260;-83
2021/01/01 02:28:40;;;;;;;52.45;41.50;;;1.40;99.90;;;;;;5035536;28;20191;-84
2021/01/01 02:31:06;;;;;;;60.00;46.20;;;1.20;99.90;;;;;;5034303;28;20173;-84
2021/01/01 02:33:32;;;;;;;54.80;42.25;;;1.40;99.90;;;;;;5034258;28;20224;-83
2021/01/01 02:35:58;;;;;;;62.05;46.17;;;;;;;;;;5034021;28;20333;-83
2021/01/01 02:38:24;;;;;;;65.78;46.85;;;1.20;99.90;;;;;;5033698;28;20727;-83
2021/01/01 02:40:50;;;;;;;57.97;45.42;;;1.20;99.90;;;;;;5035195;28;20255;-83
2021/01/01 02:43:15;;;;;;;63.03;47.20;;;2.10;99.90;;;;;;5034775;28;20246;-84
2021/01/01 02:45:41;;;;;;;60.72;46.20;;;;;;;;;;5033935;28;20175;-84
2021/01/01 02:48:19;;;;;;;61.72;46.75;;;1.10;99.90;;;;;;5033856;28;20774;-83
2021/01/01 02:50:45;;;;;;;70.75;49.78;;;1.10;99.90;;;;;;5033903;28;20180;-83
2021/01/01 02:53:12;;;;;;;60.78;46.65;;;1.00;99.90;;;;;;5033227;28;20193;-84
2021/01/01 02:55:38;;;;;;;63.17;49.17;;;1.00;99.90;;;;;;5033608;28;20250;-83
2021/01/01 02:58:05;;;;;;;70.10;53.03;;;1.00;99.90;;;;;;5033628;28;20283;-84
2021/01/01 03:00:33;;;;;;;68.05;49.67;;;1.40;99.90;;;;;;5035168;28;20581;-83
2021/01/01 03:02:59;;;;;;;68.68;52.60;;;;;;;;;;5033549;28;20693;-83
2021/01/01 03:05:25;;;;;;;60.75;47.78;;;1.10;99.90;;;;;;5035102;28;20160;-84
2021/01/01 03:07:51;;;;;;;66.97;49.53;;;;;;;;;;5033081;28;20282;-84
2021/01/01 03:10:18;;;;;;;75.25;54.50;;;1.20;99.90;;;;;;5033134;28;20223;-84
2021/01/01 03:12:44;;;;;;;60.45;49.00;;;1.10;99.90;;;;;;5033283;28;20200;-83
2021/01/01 03:15:10;;;;;;;68.68;52.05;;;1.10;99.90;;;;;;5034680;28;20215;-83
2021/01/01 03:17:36;;;;;;;69.57;50.75;;;;;;;;;;5034632;28;20215;-83
2021/01/01 03:20:04;;;;;;;66.05;49.83;;;1.00;99.90;;;;;;5033504;28;20180;-83
2021/01/01 03:22:30;;;;;;;71.10;52.47;;;1.00;99.90;;;;;;5033038;28;20204;-83
2021/01/01 03:24:55;;;;;;;64.97;52.10;;;0.80;99.90;;;;;;5034096;28;20219;-83
2021/01/01 03:27:22;;;;;;;68.05;51.30;;;;;;;;;;5033263;28;20693;-83
2021/01/01 03:29:48;;;;;;;69.30;54.88;;;0.90;99.90;;;;;;5032750;28;20267;-84
2021/01/01 03:32:13;;;;;;;66.72;50.08;;;0.90;99.90;;;;;;5033357;28;20231;-83
2021/01/01 03:34:40;;;;;;;74.50;52.95;;;;;;;;;;5032900;28;20232;-84
2021/01/01 03:37:06;;;;;;;60.88;49.58;;;0.80;99.90;;;;;;5034286;28;20176;-83
2021/01/01 03:39:32;;;;;;;65.13;51.05;;;0.80;99.90;;;;;;5015392;28;20271;-83
2021/01/01 03:41:58;;;;;;;70.25;49.72;;;0.90;99.90;;;;;;5034005;28;20251;-83
2021/01/01 03:44:23;;;;;;;68.57;51.50;;;0.60;99.90;;;;;;5034228;28;20199;-84
2021/01/01 03:46:49;;;;;;;73.65;53.03;;;0.50;99.90;;;;;;5034293;28;20592;-84
2021/01/01 03:49:15;;;;;;;75.07;52.90;;;0.80;99.90;;;;;;5032816;28;20188;-84
2021/01/01 03:51:41;;;;;;;72.18;51.92;;;0.70;99.90;;;;;;5034124;28;20526;-84
2021/01/01 03:54:07;;;;;;;62.30;49.22;;;1.80;99.90;;;;;;5032471;28;20283;-84
2021/01/01 03:56:33;;;;;;;66.63;49.60;;;0.50;99.90;;;;;;5033929;28;20308;-84
2021/01/01 03:58:59;;;;;;;63.92;49.80;;;0.70;99.90;;;;;;5032778;28;20196;-85
2021/01/01 04:01:25;;;;;;;68.55;48.97;;;;;;;;;;5031444;28;20165;-84
2021/01/01 04:03:50;;;;;;;65.68;49.92;;;0.50;99.90;;;;;;5033682;28;20196;-84
2021/01/01 04:06:17;;;;;;;73.03;52.67;;;;;;;;;;5032251;28;20222;-83
2021/01/01 04:08:42;;;;;;;64.90;48.45;;;0.50;99.90;;;;;;5031765;28;20240;-84
2021/01/01 04:11:08;;;;;;;68.18;51.97;;;;;;;;;;5033738;28;20489;-83
2021/01/01 04:13:34;;;;;;;67.15;49.40;;;1.60;99.90;;;;;;5033695;28;20226;-83
2021/01/01 04:16:03;;;;;;;66.43;48.60;;;2.60;99.90;;;;;;5031985;28;20303;-83
2021/01/01 04:18:29;;;;;;;66.10;49.80;;;0.70;99.90;;;;;;5032207;28;20306;-84
2021/01/01 04:20:55;;;;;;;72.03;50.13;;;;;;;;;;5033390;28;20655;-84
2021/01/01 04:23:21;;;;;;;64.53;49.28;;;0.70;99.90;;;;;;5031790;28;20284;-83
2021/01/01 04:25:47;;;;;;;70.25;52.35;;;1.70;99.90;;;;;;5031809;28;20169;-84
2021/01/01 04:28:13;;;;;;;63.80;49.47;;;0.70;99.90;;;;;;5033439;28;20195;-84
2021/01/01 04:30:39;;;;;;;64.60;49.08;;;1.80;99.90;;;;;;5032025;28;20172;-84
2021/01/01 04:33:04;;;;;;;59.85;46.55;;;2.00;99.90;;;;;;5031206;28;20203;-84
2021/01/01 04:35:31;;;;;;;62.10;48.45;;;;;;;;;;5031913;28;20222;-84
2021/01/01 04:37:56;;;;;;;59.15;46.63;;;0.40;99.90;;;;;;5033085;28;20189;-83
2021/01/01 04:40:23;;;;;;;57.47;45.30;;;0.50;99.90;;;;;;5031446;28;20179;-84
2021/01/01 04:42:49;;;;;;;56.95;43.60;;;0.60;99.90;;;;;;5031440;28;20250;-84
2021/01/01 04:45:16;;;;;;;59.35;44.45;;;0.60;99.90;;;;;;5031877;28;20172;-84
2021/01/01 04:47:42;;;;;;;52.63;43.28;;;0.60;99.90;;;;;;5031406;28;20196;-84
2021/01/01 04:50:09;;;;;;;60.08;45.30;;;1.40;99.90;;;;;;5031762;28;20222;-84
2021/01/01 04:52:35;;;;;;;54.20;43.58;;;;;;;;;;5032751;28;20251;-84
2021/01/01 04:55:02;;;;;;;57.38;45.35;;;0.50;99.90;;;;;;5032107;28;20212;-84
2021/01/01 04:57:28;;;;;;;62.83;43.60;;;0.80;99.90;;;;;;5031316;28;20195;-83
2021/01/01 04:59:55;;;;;;;57.13;44.80;;;0.50;99.90;;;;;;5031693;28;20168;-84
2021/01/01 05:02:21;;;;;;;54.78;42.97;;;0.50;99.90;;;;;;5031313;28;20199;-83
2021/01/01 05:04:48;;;;;;;59.58;45.33;;;0.50;99.90;;;;;;5031495;28;20263;-83
2021/01/01 05:07:18;;;;;;;59.30;44.60;;;0.40;99.90;;;;;;5031245;28;20203;-83
2021/01/01 05:09:45;;;;;;;56.92;44.15;;;2.60;99.90;;;;;;5030898;28;20182;-84
2021/01/01 05:12:11;;;;;;;55.25;42.72;;;0.50;99.90;;;;;;5031287;28;20246;-83
2021/01/01 05:14:41;;;;;;;61.88;44.90;;;0.20;99.90;;;;;;5031447;28;20211;-84
2021/01/01 05:17:08;;;;;;;59.53;45.50;;;0.40;99.90;;;;;;5032397;28;20173;-84
2021/01/01 05:19:39;;;;;;;65.75;44.70;;;0.40;99.90;;;;;;5031128;28;20172;-83
2021/01/01 05:22:13;;;;;;;58.15;43.33;;;0.20;99.90;;;;;;5032521;28;20175;-83
2021/01/01 05:24:49;;;;;;;54.88;41.67;;;0.40;99.90;;;;;;5030642;28;20176;-84
2021/01/01 05:27:16;;;;;;;57.22;42.88;;;0.40;99.90;;;;;;5031129;28;20192;-83
2021/01/01 05:29:53;;;;;;;57.65;42.55;;;0.50;99.90;;;;;;5030611;28;20173;-84
2021/01/01 05:32:28;;;;;;;58.70;41.92;;;0.40;99.90;;;;;;5032372;28;20196;-84
2021/01/01 05:34:57;;;;;;;55.95;42.45;;;0.40;99.90;;;;;;5030426;28;20243;-83
2021/01/01 05:37:29;;;;;;;58.10;43.97;;;0.40;99.90;;;;;;5032138;28;20184;-84
2021/01/01 05:40:10;;;;;;;60.95;44.78;;;0.90;99.90;;;;;;5030454;28;20643;-84
2021/01/01 05:42:37;;;;;;;60.08;45.33;;;0.40;99.90;;;;;;5030879;28;20196;-84
2021/01/01 05:45:13;;;;;;;56.15;43.15;;;0.40;99.90;;;;;;5030632;28;20184;-84
2021/01/01 05:47:39;;;;;;;57.53;42.47;;;0.40;99.90;;;;;;5032082;28;20266;-84
2021/01/01 05:50:05;;;;;;;56.28;44.00;;;0.10;99.90;;;;;;5030793;28;20172;-83
2021/01/01 05:52:31;;;;;;;55.78;41.15;;;0.10;99.90;;;;;;5030714;28;20273;-83
2021/01/01 05:55:01;;;;;;;60.35;43.05;;;0.60;99.90;;;;;;5033095;28;20670;-84
2021/01/01 05:57:36;;;;;;;56.42;43.38;;;0.40;99.90;;;;;;5034419;28;20195;-84
2021/01/01 06:00:10;;;;;;;55.83;41.67;;;0.50;99.90;;;;;;5034870;28;20234;-84
2021/01/01 06:02:41;;;;;;;52.38;40.50;;;0.30;99.90;;;;;;5033955;28;20227;-84
2021/01/01 06:05:09;;;;;;;59.28;42.20;;;0.50;99.90;;;;;;5036062;28;20172;-83
2021/01/01 06:07:41;;;;;;;59.85;46.10;;;0.60;99.90;;;;;;5034544;28;20236;-83
2021/01/01 06:10:10;;;;;;;53.35;40.97;;;0.70;99.90;;;;;;5035622;28;20196;-83
2021/01/01 06:12:37;;;;;;;52.25;39.92;;;0.60;99.90;;;;;;5034335;28;20243;-84
2021/01/01 06:15:08;;;;;;;53.25;42.10;;;0.50;99.90;;;;;;5035882;28;20204;-84
2021/01/01 06:17:34;;;;;;;53.90;42.15;;;0.40;99.90;;;;;;5034164;28;20732;-83
2021/01/01 06:20:00;;;;;;;51.00;40.13;;;;;;;;;;5034611;28;20176;-83
2021/01/01 06:22:28;;;;;;;51.97;40.50;;;0.50;99.90;;;;;;5034025;28;20227;-83
2021/01/01 06:24:56;;;;;;;55.58;42.50;;;0.10;99.90;;;;;;5033611;28;20165;-83
2021/01/01 06:27:25;;;;;;;53.60;41.08;;;0.30;99.90;;;;;;5034243;28;20607;-83
2021/01/01 06:30:12;;;;;;;54.45;40.80;;;0.30;99.90;;;;;;5034460;28;20180;-84
2021/01/01 06:32:39;;;;;;;49.95;40.00;;;0.30;99.90;;;;;;5034151;28;20192;-84
2021/01/01 06:35:13;;;;;;;54.38;40.05;;;0.40;99.90;;;;;;5035486;28;20200;-83
2021/01/01 06:37:48;;;;;;;54.65;41.83;;;0.30;99.90;;;;;;5033793;28;20234;-83
2021/01/01 06:40:22;;;;;;;57.33;42.72;;;-0.70;99.90;;;;;;5035083;28;20181;-83
2021/01/01 06:42:54;;;;;;;48.45;40.00;;;0.80;99.90;;;;;;5033883;28;20200;-84
2021/01/01 06:45:36;;;;;;;58.13;44.13;;;0.20;99.90;;;;;;5034116;28;20184;-84
2021/01/01 06:48:22;;;;;;;47.08;38.60;;;0.20;99.90;;;;;;5034928;28;20287;-84
2021/01/01 06:50:52;;;;;;;49.22;38.35;;;0.10;99.90;;;;;;5020385;28;20269;-83
2021/01/01 06:53:27;;;;;;;47.78;38.03;;;0.20;99.90;;;;;;5034495;28;20193;-84
2021/01/01 06:56:06;;;;;;;43.25;37.20;;;0.20;99.90;;;;;;5033730;28;20205;-84
2021/01/01 06:58:32;;;;;;;48.35;38.58;;;0.30;99.90;;;;;;5033614;28;20282;-84
2021/01/01 07:00:58;;;;;;;49.08;37.63;;;0.30;99.90;;;;;;5033540;28;20243;-83
2021/01/01 07:03:27;;;;;;;48.83;37.70;;;0.20;99.90;;;;;;5033444;28;20674;-83
2021/01/01 07:06:02;;;;;;;47.20;37.53;;;0.00;99.90;;;;;;5033651;28;20179;-84
2021/01/01 07:08:40;;;;;;;52.90;39.35;;;0.20;99.90;;;;;;5032879;28;20223;-84
2021/01/01 07:11:29;;;;;;;49.58;38.38;;;1.10;99.90;;;;;;5033860;28;20260;-84
2021/01/01 07:14:01;;;;;;;54.40;40.38;;;0.30;99.90;;;;;;5033143;28;20689;-84
2021/01/01 07:16:34;;;;;;;47.97;37.42;;;0.40;99.90;;;;;;5034801;28;20200;-84
2021/01/01 07:19:01;;;;;;;46.08;36.40;;;0.10;99.90;;;;;;5033422;28;20188;-83
2021/01/01 07:21:27;;;;;;;50.78;38.33;;;0.50;99.90;;;;;;5034384;28;20184;-84
2021/01/01 07:23:53;;;;;;;49.80;38.78;;;;;;;;;;5032860;28;20538;-84
2021/01/01 07:26:19;;;;;;;47.08;37.53;;;;;;;;;;5033234;28;20196;-83
2021/01/01 07:28:47;;;;;;;49.00;36.95;;;0.40;99.90;;;;;;5034517;28;20235;-84
2021/01/01 07:31:15;;;;;;;51.60;39.00;;;0.40;99.90;;;;;;5033149;28;20176;-84
2021/01/01 07:33:41;;;;;;;51.47;37.70;;;0.30;99.90;;;;;;5032575;28;20200;-84
2021/01/01 07:36:09;;;;;;;52.28;38.75;;;0.30;99.90;;;;;;5032638;28;20208;-84
2021/01/01 07:38:37;;;;;;;54.78;40.78;;;0.40;99.90;;;;;;5032675;28;20680;-84
2021/01/01 07:41:04;;;;;;;53.80;40.60;;;0.50;99.90;;;;;;5034278;28;20181;-84
2021/01/01 07:43:30;;;;;;;46.42;36.72;;;0.50;99.90;;;;;;5034333;28;20215;-84
2021/01/01 07:46:04;;;;;;;51.17;37.65;;;0.50;99.90;;;;;;5034208;28;20204;-83
2021/01/01 07:48:30;;;;;;;44.92;36.55;;;0.60;99.90;;;;;;5032877;28;20200;-84
2021/01/01 07:51:04;;;;;;;47.15;36.78;;;0.40;99.90;;;;;;5033765;28;20230;-84
2021/01/01 07:53:30;;;;;;;45.67;34.80;;;0.60;99.90;;;;;;5033401;28;20194;-84
2021/01/01 07:56:04;;;;;;;46.38;35.60;;;0.60;99.90;;;;;;5032514;28;20710;-84
2021/01/01 07:58:31;;;;;;;43.80;35.05;;;0.70;99.90;;;;;;5031905;28;20188;-84
2021/01/01 08:01:06;;;;;;;46.95;37.90;;;0.60;99.90;;;;;;5032657;28;20190;-84
2021/01/01 08:03:33;;;;;;;48.03;37.03;;;0.50;99.90;;;;;;5033586;28;20184;-84
2021/01/01 08:06:00;;;;;;;44.45;35.58;;;0.80;99.90;;;;;;5033488;28;20658;-83
2021/01/01 08:08:26;;;;;;;48.78;36.97;;;0.70;99.90;;;;;;5033198;28;20220;-84
2021/01/01 08:10:54;;;;;;;44.97;36.47;;;0.70;99.90;;;;;;5032449;28;20234;-84
2021/01/01 08:13:21;;;;;;;43.63;34.42;;;0.70;99.90;;;;;;5032179;28;20692;-84
2021/01/01 08:15:48;;;;;;;49.60;38.10;;;0.80;99.90;;;;;;5031833;28;20208;-84
2021/01/01 08:18:27;;;;;;;45.97;36.40;;;0.70;99.90;;;;;;5032770;28;20597;-84
2021/01/01 08:21:01;;;;;;;46.90;38.15;;;1.70;99.90;;;;;;5032294;28;20172;-84
2021/01/01 08:23:32;;;;;;;43.72;35.63;;;1.00;99.90;;;;;;5032975;28;20681;-84
2021/01/01 08:25:58;;;;;;;46.67;38.33;;;1.10;99.90;;;;;;5032163;28;20634;-84
2021/01/01 08:28:25;;;;;;;55.65;46.13;;;1.30;99.90;;;;;;5033128;28;20227;-84
2021/01/01 08:31:02;;;;;;;49.88;39.63;;;1.30;99.90;;;;;;5032107;28;20180;-83
2021/01/01 08:33:36;;;;;;;42.05;33.80;;;1.20;99.90;;;;;;5031940;28;20616;-83
2021/01/01 08:36:07;;;;;;;37.55;31.20;;;1.20;99.90;;;;;;5031896;28;20297;-83
2021/01/01 08:38:33;;;;;;;44.70;35.33;;;1.30;99.90;;;;;;5031466;28;20193;-83
2021/01/01 08:41:00;;;;;;;46.53;34.28;;;1.40;99.90;;;;;;5031806;28;20173;-83
2021/01/01 08:43:27;;;;;;;55.90;41.22;;;1.50;99.90;;;;;;5031674;28;20196;-83
2021/01/01 08:45:54;;;;;;;72.28;49.72;;;1.60;99.90;;;;;;5032247;28;20172;-81
2021/01/01 08:48:20;;;;;;;42.30;35.05;;;1.70;99.90;;;;;;5031569;28;20296;-84
2021/01/01 08:50:51;;;;;;;44.55;35.25;;;1.80;99.90;;;;;;5031775;28;20180;-80
2021/01/01 08:53:18;;;;;;;42.30;37.90;;;;;;;;;;5030613;28;20492;-87
2021/01/01 08:55:55;;;;;;;37.60;32.60;;;1.70;99.90;;;;;;5022094;28;20299;-87
2021/01/01 08:58:21;;;;;;;38.20;31.73;;;1.80;99.90;;;;;;5021760;28;20304;-87
2021/01/01 09:00:47;;;;;;;35.25;29.58;;;;;;;;;;5031092;28;20513;-87
2021/01/01 09:03:15;;;;;;;36.90;30.65;;;1.70;99.90;;;;;;5021461;28;20712;-74
2021/01/01 09:05:41;;;;;;;35.97;30.73;;;1.90;99.90;;;;;;5027620;28;20172;-76
2021/01/01 09:08:10;;;;;;;40.20;32.28;;;1.80;99.90;;;;;;5031422;28;20228;-74
2021/01/01 09:10:39;;;;;;;41.15;32.42;;;1.80;99.90;;;;;;5032201;28;20296;-75
2021/01/01 09:13:15;;;;;;;58.35;40.50;;;1.80;99.90;;;;;;5027780;28;20286;-72
2021/01/01 09:15:41;;;;;;;36.13;29.17;;;1.80;99.90;;;;;;5020931;28;20210;-76
2021/01/01 09:18:07;;;;;;;34.45;27.83;;;1.50;99.90;;;;;;5020799;28;20283;-76
2021/01/01 09:20:34;;;;;;;32.53;27.55;;;2.20;99.90;;;;;;5021321;28;20170;-76
2021/01/01 09:23:01;;;;;;;31.77;26.95;;;1.80;99.90;;;;;;5021519;28;20192;-75
2021/01/01 09:25:29;;;;;;;29.15;24.60;;;1.80;99.90;;;;;;5022910;28;20175;-74
2021/01/01 09:27:55;;;;;;;30.25;25.70;;;1.90;99.90;;;;;;5019171;28;20189;-72
2021/01/01 09:30:23;;;;;;;31.73;25.25;;;1.90;99.90;;;;;;5029626;28;20176;-73
2021/01/01 09:32:52;;;;;;;29.05;24.10;;;2.00;99.90;;;;;;5030173;28;20192;-74
2021/01/01 09:35:18;;;;;;;28.10;24.10;;;1.90;99.90;;;;;;5032081;28;20216;-76
2021/01/01 09:37:57;;;;;;;27.30;24.30;;;1.90;99.90;;;;;;5032205;28;20207;-75
2021/01/01 09:40:26;;;;;;;25.58;21.70;;;2.00;99.90;;;;;;5018966;28;20212;-76
2021/01/01 09:42:52;;;;;;;25.45;22.80;;;1.90;99.90;;;;;;5019299;28;20196;-76
2021/01/01 09:45:18;;;;;;;24.77;21.98;;;;;;;;;;5020330;28;20207;-76
2021/01/01 09:47:45;;;;;;;25.48;22.40;;;2.00;99.90;;;;;;5019935;28;20195;-76
2021/01/01 09:50:11;;;;;;;24.25;20.60;;;2.00;99.90;;;;;;5027919;28;20171;-76
2021/01/01 09:52:37;;;;;;;23.65;20.70;;;2.00;99.90;;;;;;5030250;28;20200;-76
2021/01/01 09:55:07;;;;;;;26.80;21.30;;;2.10;99.90;;;;;;5024732;28;20255;-75
2021/01/01 09:57:33;;;;;;;27.88;22.48;;;2.10;99.90;;;;;;5018423;28;20205;-75
2021/01/01 09:59:59;;;;;;;22.83;19.52;;;2.20;99.90;;;;;;5014948;28;20582;-75
2021/01/01 10:02:25;;;;;;;21.77;19.08;;;2.10;99.90;;;;;;5017302;28;20197;-76
2021/01/01 10:04:51;;;;;;;22.02;18.15;;;2.10;99.90;;;;;;5020907;28;20183;-76
2021/01/01 10:07:17;;;;;;;23.80;20.02;;;2.10;99.90;;;;;;5020001;28;20212;-76
2021/01/01 10:09:43;;;;;;;23.50;19.88;;;2.20;99.90;;;;;;5030072;28;20259;-76
2021/01/01 10:12:12;;;;;;;24.30;19.90;;;2.20;99.90;;;;;;5025711;28;20192;-76
2021/01/01 10:14:38;;;;;;;23.83;20.08;;;2.20;99.90;;;;;;5021409;28;20176;-79
2021/01/01 10:17:04;;;;;;;23.83;20.63;;;2.20;99.90;;;;;;5019501;28;20172;-77
2021/01/01 10:19:29;;;;;;;24.23;21.48;;;2.30;99.90;;;;;;5022158;28;20157;-76
2021/01/01 10:21:55;;;;;;;28.08;22.67;;;2.30;99.90;;;;;;5020321;28;20181;-76
2021/01/01 10:24:24;;;;;;;25.90;21.38;;;2.30;99.90;;;;;;5027157;28;20180;-76
2021/01/01 10:26:51;;;;;;;28.13;21.83;;;2.30;99.90;;;;;;5022856;28;20216;-77
2021/01/01 10:29:17;;;;;;;25.05;21.00;;;2.30;99.90;;;;;;5030255;28;20621;-76
2021/01/01 10:31:46;;;;;;;26.60;22.10;;;2.30;99.90;;;;;;5031833;28;20169;-77
2021/01/01 10:34:12;;;;;;;26.85;22.65;;;2.40;99.90;;;;;;5028050;28;20200;-76
2021/01/01 10:36:38;;;;;;;31.65;26.10;;;2.30;99.90;;;;;;5019160;28;20258;-76
2021/01/01 10:39:09;;;;;;;29.70;24.58;;;2.40;99.90;;;;;;5020408;28;20201;-76
2021/01/01 10:41:36;;;;;;;31.65;27.30;;;2.40;99.90;;;;;;5031588;28;20169;-76
2021/01/01 10:44:05;;;;;;;32.28;25.88;;;2.40;99.90;;;;;;5024725;28;20596;-77
2021/01/01 10:46:31;;;;;;;30.48;24.90;;;2.40;99.90;;;;;;5031516;28;20375;-78
2021/01/01 10:49:00;;;;;;;27.02;22.90;;;2.40;99.90;;;;;;5023594;28;20278;-76
2021/01/01 10:51:26;;;;;;;28.58;22.58;;;2.40;99.90;;;;;;5020920;28;20174;-76
2021/01/01 10:53:52;;;;;;;23.33;19.58;;;2.50;99.90;;;;;;5022808;28;20738;-77
2021/01/01 10:56:26;;;;;;;22.80;19.67;;;2.50;99.90;;;;;;5025157;28;20284;-77
2021/01/01 10:58:52;;;;;;;23.02;16.88;;;;;;;;;;5024086;28;20272;-76
2021/01/01 11:01:19;;;;;;;20.25;16.33;;;2.50;99.90;;;;;;5027929;28;20180;-77
2021/01/01 11:03:45;;;;;;;21.67;16.40;;;2.60;99.90;;;;;;5032779;28;20304;-76
2021/01/01 11:06:12;;;;;;;24.05;18.75;;;2.50;99.90;;;;;;5026210;28;20234;-77
2021/01/01 11:08:39;;;;;;;24.13;18.70;;;2.50;99.90;;;;;;5033103;28;20235;-77
2021/01/01 11:11:06;;;;;;;24.00;19.10;;;2.60;99.90;;;;;;5034306;28;20165;-78
2021/01/01 11:13:32;;;;;;;23.85;18.60;;;2.60;99.90;;;;;;5034585;28;20195;-79
2021/01/01 12:27:01;;;;;;;27.30;20.27;;;4.00;99.90;;;;;;5033255;28;20173;-74
2021/01/01 12:29:27;;;;;;;23.10;19.05;;;4.20;99.90;;;;;;5031397;28;20730;-74
2021/01/01 12:31:53;;;;;;;27.92;19.60;;;;;;;;;;5032572;28;20175;-78
2021/01/01 12:34:20;;;;;;;22.40;18.10;;;;;;;;;;5031580;28;20180;-79
2021/01/01 12:36:46;;;;;;;24.77;20.58;;;;;;;;;;5033278;28;20219;-78
2021/01/01 12:39:12;;;;;;;26.27;20.17;;;;;;;;;;5031806;28;20235;-79
2021/01/01 12:41:39;;;;;;;25.23;19.85;;;4.30;99.90;;;;;;5030778;28;20211;-78
2021/01/01 12:44:05;;;;;;;24.20;20.13;;;4.40;99.90;;;;;;5031021;28;20640;-77
2021/01/01 12:46:31;;;;;;;28.75;21.25;;;4.00;99.90;;;;;;5031853;28;20181;-78
2021/01/01 12:48:58;;;;;;;28.33;19.13;;;4.30;99.90;;;;;;5015005;28;20579;-78
2021/01/01 12:51:23;;;;;;;27.33;21.25;;;4.30;99.90;;;;;;5031683;28;20173;-78
2021/01/01 12:53:49;;;;;;;23.52;19.77;;;3.90;99.90;;;;;;5029470;28;20196;-80
2021/01/01 12:56:16;;;;;;;26.65;21.73;;;4.20;99.90;;;;;;5031433;28;20205;-79
2021/01/01 12:58:41;;;;;;;25.17;20.73;;;4.30;99.90;;;;;;5031079;28;20235;-79
2021/01/01 13:01:08;;;;;;;25.77;21.02;;;;;;;;;;5031323;28;20642;-82
2021/01/01 13:03:33;;;;;;;24.08;19.70;;;4.20;99.90;;;;;;5032091;28;20192;-78
2021/01/01 13:05:59;;;;;;;27.08;21.05;;;4.20;99.90;;;;;;5031234;28;20199;-72
2021/01/01 13:08:25;;;;;;;27.75;20.75;;;4.10;99.90;;;;;;5031881;28;20327;-73
2021/01/01 13:10:51;;;;;;;26.38;20.55;;;4.00;99.90;;;;;;5032174;28;20682;-78
2021/01/01 13:13:17;;;;;;;23.80;20.58;;;3.80;99.90;;;;;;5024311;28;20678;-77
2021/01/01 13:15:43;;;;;;;25.05;19.77;;;4.20;99.90;;;;;;5023173;28;20270;-76
2021/01/01 13:48:57;;;;;;;27.48;19.52;;;;;;;;;;5028203;28;20383;-80
2021/01/01 13:51:26;;;;;;;29.83;21.35;;;2.50;99.90;;;;;;5013432;28;20191;-80
2021/01/01 13:53:52;;;;;;;34.95;22.23;;;2.20;99.90;;;;;;5031817;28;20551;-79
2021/01/01 13:56:18;;;;;;;34.85;24.00;;;2.30;99.90;;;;;;5031692;28;20272;-78
2021/01/01 13:58:44;;;;;;;33.58;23.45;;;;;;;;;;5033997;28;20276;-81
2021/01/01 14:01:10;;;;;;;27.45;21.58;;;2.50;99.90;;;;;;5032053;28;20649;-79
2021/01/01 14:03:36;;;;;;;30.88;22.33;;;;;;;;;;5013462;28;20192;-80
2021/01/01 14:06:02;;;;;;;32.97;23.35;;;2.50;99.90;;;;;;5036451;28;20533;-77
2021/01/01 14:08:27;;;;;;;28.50;21.85;;;2.60;99.90;;;;;;5051000;28;20228;-78
2021/01/01 14:10:53;;;;;;;34.17;24.30;;;;;;;;;;5051802;28;20641;-79
2021/01/01 14:13:19;;;;;;;31.27;23.00;;;;;;;;;;5033508;28;20234;-75
2021/01/01 14:15:45;;;;;;;29.42;22.95;;;;;;;;;;5052830;28;20239;-75
2021/01/01 14:18:11;;;;;;;30.88;23.70;;;;;;;;;;5053580;28;20187;-75
2021/01/01 14:20:37;;;;;;;32.33;23.63;;;;;;;;;;5055748;28;20164;-74
2021/01/01 14:23:03;;;;;;;34.85;25.08;;;2.60;99.90;;;;;;5039679;28;20666;-75
2021/01/01 14:25:29;;;;;;;31.83;23.95;;;;;;;;;;5035301;28;20184;-75
2021/01/01 14:27:55;;;;;;;33.72;23.15;;;;;;;;;;5017434;28;20254;-75
2021/01/01 14:30:21;;;;;;;31.60;23.23;;;3.10;99.90;;;;;;5035644;28;20239;-75
2021/01/01 14:32:47;;;;;;;29.88;21.17;;;;;;;;;;5017612;28;20291;-75